Time;durP1;ratioP1;P1;durP2;ratioP2;P2;SDS_P1;SDS_P2;PMS_P1;PMS_P2;Temp;Humidity;BMP_temperature;BMP_pressure;BME280_temperature;BME280_humidity;BME280_pressure;Samples;Min_cycle;Max_cycle;Signal;HPM_P1;HPM_P2
2023/04/01 00:01:25;;;;;;;4.55;1.60;;;9.70;99.90;;;;;;5040159;28;20565;-43
2023/04/01 00:03:50;;;;;;;7.13;1.67;;;9.70;99.90;;;;;;5049020;28;20017;-42
2023/04/01 00:06:17;;;;;;;7.32;1.63;;;9.70;99.90;;;;;;5048193;28;20443;-42
2023/04/01 00:08:44;;;;;;;7.55;2.08;;;9.70;99.90;;;;;;5048941;28;20472;-41
2023/04/01 00:11:10;;;;;;;8.35;2.08;;;9.70;99.90;;;;;;5048205;28;20151;-42
2023/04/01 00:13:35;;;;;;;6.32;1.80;;;9.70;99.90;;;;;;5048963;28;20371;-41
2023/04/01 00:16:02;;;;;;;7.07;2.13;;;9.70;99.90;;;;;;5048600;28;20029;-41
2023/04/01 00:18:28;;;;;;;6.45;2.08;;;9.70;99.90;;;;;;5048508;28;20020;-43
2023/04/01 00:20:54;;;;;;;9.50;1.98;;;9.70;99.90;;;;;;5048881;28;20351;-42
2023/04/01 00:23:20;;;;;;;7.35;1.92;;;9.70;99.90;;;;;;5048796;28;20035;-41
2023/04/01 00:25:47;;;;;;;3.38;1.60;;;9.70;99.90;;;;;;5048324;28;20017;-42
2023/04/01 00:28:14;;;;;;;6.82;2.15;;;9.70;99.90;;;;;;5048242;28;20013;-42
2023/04/01 00:30:40;;;;;;;7.70;2.13;;;9.70;99.90;;;;;;5047238;28;20525;-42
2023/04/01 00:33:06;;;;;;;6.82;1.80;;;9.70;99.90;;;;;;5048283;28;20053;-41
2023/04/01 00:35:32;;;;;;;7.43;1.80;;;9.70;99.90;;;;;;5048350;28;20021;-43
2023/04/01 00:37:58;;;;;;;5.45;1.50;;;9.70;99.90;;;;;;5048180;28;20541;-43
2023/04/01 00:40:33;;;;;;;4.75;1.60;;;9.70;99.90;;;;;;5048314;28;20025;-43
2023/04/01 00:42:59;;;;;;;8.80;2.25;;;9.70;99.90;;;;;;5047839;28;20021;-41
2023/04/01 00:45:28;;;;;;;8.70;1.77;;;9.70;99.90;;;;;;5048532;28;20067;-43
2023/04/01 00:47:54;;;;;;;6.22;1.83;;;9.70;99.90;;;;;;5048275;28;20218;-41
2023/04/01 00:50:22;;;;;;;7.55;1.73;;;9.70;99.90;;;;;;5048570;28;20086;-42
2023/04/01 00:52:48;;;;;;;3.53;1.45;;;9.70;99.90;;;;;;5048435;28;20033;-44
2023/04/01 00:55:16;;;;;;;6.97;2.10;;;9.70;99.90;;;;;;5048830;28;20021;-45
2023/04/01 00:57:44;;;;;;;6.25;1.63;;;9.70;99.90;;;;;;5047703;28;20309;-42
2023/04/01 01:00:13;;;;;;;4.72;1.73;;;9.70;99.90;;;;;;5048529;28;20416;-41
2023/04/01 01:02:42;;;;;;;10.82;1.70;;;9.70;99.90;;;;;;5047481;28;20021;-41
2023/04/01 01:05:11;;;;;;;4.45;1.58;;;9.70;99.90;;;;;;5048404;28;20028;-41
2023/04/01 01:07:51;;;;;;;4.82;2.05;;;9.70;99.90;;;;;;5048105;28;20044;-43
2023/04/01 01:10:29;;;;;;;4.78;1.70;;;9.70;99.90;;;;;;5047300;28;20405;-43
2023/04/01 01:13:09;;;;;;;11.32;2.40;;;9.70;99.90;;;;;;5048198;28;20021;-41
2023/04/01 01:16:06;;;;;;;7.37;1.90;;;9.70;99.90;;;;;;5048364;28;20055;-45
2023/04/01 01:19:01;;;;;;;8.82;1.80;;;9.70;99.90;;;;;;5047450;28;20033;-41
2023/04/01 01:21:34;;;;;;;5.97;1.63;;;9.70;99.90;;;;;;5046109;28;20082;-43
2023/04/01 01:24:27;;;;;;;6.35;1.80;;;9.70;99.90;;;;;;5047753;28;20466;-41
2023/04/01 01:27:01;;;;;;;11.95;2.28;;;9.60;99.90;;;;;;5047593;28;20025;-42
2023/04/01 01:29:55;;;;;;;11.95;2.42;;;9.60;99.90;;;;;;5048229;28;20025;-43
2023/04/01 01:32:42;;;;;;;8.68;2.45;;;9.60;99.90;;;;;;5048118;28;20056;-43
2023/04/01 01:35:35;;;;;;;7.32;2.20;;;9.50;99.90;;;;;;5047680;28;20064;-42
2023/04/01 01:38:05;;;;;;;5.65;1.83;;;9.60;99.90;;;;;;5047385;28;20021;-44
2023/04/01 01:40:33;;;;;;;6.55;1.75;;;9.60;99.90;;;;;;5047900;28;20025;-43
2023/04/01 01:43:05;;;;;;;5.30;2.08;;;9.60;99.90;;;;;;5047787;28;20021;-42
2023/04/01 01:45:33;;;;;;;9.18;2.08;;;9.60;99.90;;;;;;5047652;28;20013;-42
2023/04/01 01:48:00;;;;;;;8.15;2.08;;;9.60;99.90;;;;;;5047294;28;20040;-41
2023/04/01 01:50:27;;;;;;;6.03;1.80;;;9.60;99.90;;;;;;5048239;28;20590;-40
2023/04/01 01:53:01;;;;;;;3.53;1.98;;;9.60;99.90;;;;;;5049988;28;20037;-42
2023/04/01 01:55:33;;;;;;;3.03;1.85;;;9.60;99.90;;;;;;5051362;28;20043;-42
2023/04/01 01:58:11;;;;;;;6.82;2.22;;;9.60;99.90;;;;;;5050698;28;20044;-42
2023/04/01 02:00:38;;;;;;;6.90;1.50;;;9.60;99.90;;;;;;5051510;28;20099;-41
2023/04/01 02:03:05;;;;;;;8.18;2.28;;;9.60;99.90;;;;;;5051191;28;20043;-41
2023/04/01 02:05:32;;;;;;;9.65;1.85;;;9.60;99.90;;;;;;5050964;28;20017;-42
2023/04/01 02:08:12;;;;;;;6.53;2.65;;;9.60;99.90;;;;;;5049609;28;20445;-40
2023/04/01 02:10:40;;;;;;;;;;;9.60;99.90;;;;;;5051534;28;20017;-41
2023/04/01 02:13:15;;;;;;;11.38;1.92;;;9.60;99.90;;;;;;5043300;28;19904;-41
2023/04/01 02:15:45;;;;;;;6.18;2.60;;;9.60;99.90;;;;;;5050553;28;20409;-41
2023/04/01 02:18:13;;;;;;;5.85;2.00;;;9.60;99.90;;;;;;5050749;28;20021;-41
2023/04/01 02:20:39;;;;;;;5.95;1.52;;;9.60;99.90;;;;;;5050861;28;20134;-41
2023/04/01 02:23:07;;;;;;;6.03;1.77;;;9.60;99.90;;;;;;5051158;28;20105;-41
2023/04/01 02:25:36;;;;;;;10.55;2.45;;;9.50;99.90;;;;;;5051077;28;20608;-40
2023/04/01 02:28:06;;;;;;;6.00;1.75;;;9.60;99.90;;;;;;5050384;28;20013;-41
2023/04/01 02:30:34;;;;;;;4.45;1.70;;;9.50;99.90;;;;;;5051122;28;20024;-41
2023/04/01 02:33:01;;;;;;;8.77;1.50;;;9.50;99.90;;;;;;5050331;28;20028;-41
2023/04/01 02:35:26;;;;;;;8.02;1.80;;;9.50;99.90;;;;;;5050353;28;20029;-41
2023/04/01 02:37:55;;;;;;;3.28;1.85;;;9.50;99.90;;;;;;5047744;28;20029;-41
2023/04/01 02:40:21;;;;;;;11.35;1.98;;;9.50;99.90;;;;;;5050403;28;20021;-41
2023/04/01 02:42:47;;;;;;;6.22;1.52;;;9.50;99.90;;;;;;5050191;28;20028;-42
2023/04/01 02:45:13;;;;;;;8.35;2.13;;;9.40;99.90;;;;;;5050171;28;20495;-42
2023/04/01 02:47:39;;;;;;;4.07;1.67;;;9.50;99.90;;;;;;5049252;28;20402;-42
2023/04/01 02:50:05;;;;;;;6.35;1.48;;;9.50;99.90;;;;;;5049831;28;20305;-42
2023/04/01 02:52:31;;;;;;;5.55;1.58;;;9.60;99.90;;;;;;5050457;28;20097;-43
2023/04/01 02:54:57;;;;;;;6.95;1.88;;;9.60;99.90;;;;;;5050336;28;20111;-42
2023/04/01 02:57:23;;;;;;;8.57;1.98;;;9.50;99.90;;;;;;5049969;28;20302;-41
2023/04/01 02:59:49;;;;;;;5.63;1.80;;;9.50;99.90;;;;;;5049712;28;20021;-42
2023/04/01 03:02:15;;;;;;;6.93;2.25;;;9.50;99.90;;;;;;5049921;28;20525;-41
2023/04/01 03:04:41;;;;;;;4.03;1.77;;;9.50;99.90;;;;;;5048897;28;20036;-41
2023/04/01 03:07:08;;;;;;;4.75;1.67;;;9.50;99.90;;;;;;5048432;28;20025;-40
2023/04/01 03:09:34;;;;;;;4.20;1.60;;;9.40;99.90;;;;;;5049476;28;20016;-40
2023/04/01 03:11:59;;;;;;;5.00;2.15;;;9.50;99.90;;;;;;5049840;28;20147;-40
2023/04/01 03:14:25;;;;;;;2.72;1.75;;;9.50;99.90;;;;;;5049030;28;20017;-40
2023/04/01 03:16:50;;;;;;;5.60;1.52;;;9.40;99.90;;;;;;5049177;28;20375;-40
2023/04/01 03:19:16;;;;;;;4.93;1.60;;;9.40;99.90;;;;;;5048833;28;20125;-41
2023/04/01 03:21:41;;;;;;;7.25;1.80;;;9.40;99.90;;;;;;5045940;28;20497;-40
2023/04/01 03:24:07;;;;;;;4.68;1.85;;;9.50;99.90;;;;;;5045555;28;20056;-40
2023/04/01 03:26:33;;;;;;;7.15;1.48;;;9.40;99.90;;;;;;5048425;28;20469;-41
2023/04/01 03:28:59;;;;;;;3.85;1.63;;;9.40;99.90;;;;;;5048540;28;20335;-40
2023/04/01 03:31:24;;;;;;;9.05;1.98;;;9.40;99.90;;;;;;5049258;28;20020;-40
2023/04/01 03:33:50;;;;;;;7.70;2.10;;;9.40;99.90;;;;;;5048229;28;20066;-40
2023/04/01 03:36:16;;;;;;;5.15;1.95;;;9.40;99.90;;;;;;5047321;28;20063;-40
2023/04/01 03:38:42;;;;;;;2.72;1.40;;;9.30;99.90;;;;;;5063848;28;20049;-40
2023/04/01 03:41:12;;;;;;;8.15;1.60;;;9.30;99.90;;;;;;5048762;28;20032;-40
2023/04/01 03:43:38;;;;;;;6.28;2.47;;;9.40;99.90;;;;;;5048977;28;20033;-40
2023/04/01 03:46:03;;;;;;;3.92;1.92;;;9.40;99.90;;;;;;5046338;28;20095;-40
2023/04/01 03:48:29;;;;;;;7.38;1.65;;;9.40;99.90;;;;;;5045488;28;20090;-40
2023/04/01 03:50:54;;;;;;;4.18;1.50;;;9.40;99.90;;;;;;5048349;28;20025;-41
2023/04/01 03:53:20;;;;;;;6.18;1.52;;;9.40;99.90;;;;;;5049188;28;20429;-40
2023/04/01 03:55:46;;;;;;;4.63;1.58;;;9.40;99.90;;;;;;5045265;28;20525;-40
2023/04/01 03:58:12;;;;;;;6.85;2.50;;;9.40;99.90;;;;;;5043045;28;20036;-41
2023/04/01 04:00:37;;;;;;;4.45;2.17;;;9.40;99.90;;;;;;5063525;28;20025;-41
2023/04/01 04:03:03;;;;;;;4.88;1.85;;;9.40;99.90;;;;;;5045195;28;20037;-41
2023/04/01 04:05:28;;;;;;;7.20;1.75;;;9.40;99.90;;;;;;5044949;28;20383;-40
2023/04/01 04:07:55;;;;;;;4.50;1.42;;;9.40;99.90;;;;;;5047788;28;20103;-42
2023/04/01 04:10:22;;;;;;;5.78;1.70;;;9.40;99.90;;;;;;5044269;28;20025;-41
2023/04/01 04:12:49;;;;;;;8.63;2.05;;;9.30;99.90;;;;;;5047939;28;20027;-41
2023/04/01 04:15:14;;;;;;;6.38;1.70;;;9.30;99.90;;;;;;5042375;28;20387;-41
2023/04/01 04:17:41;;;;;;;4.95;1.65;;;9.40;99.90;;;;;;5047706;28;20078;-41
2023/04/01 04:20:07;;;;;;;4.72;2.00;;;9.30;99.90;;;;;;5047024;28;20024;-41
2023/04/01 04:22:33;;;;;;;5.53;1.60;;;9.30;99.90;;;;;;5048110;28;20024;-41
2023/04/01 04:24:59;;;;;;;4.97;1.63;;;9.30;99.90;;;;;;5046798;28;20021;-41
2023/04/01 04:27:24;;;;;;;4.72;1.77;;;9.30;99.90;;;;;;5048195;28;20020;-41
2023/04/01 04:29:50;;;;;;;5.78;1.92;;;9.30;99.90;;;;;;5049382;28;20044;-42
2023/04/01 04:32:15;;;;;;;4.22;1.98;;;9.30;99.90;;;;;;5048650;28;20371;-41
2023/04/01 04:34:41;;;;;;;4.63;2.30;;;9.30;99.90;;;;;;5048456;28;20036;-40
2023/04/01 04:37:06;;;;;;;5.72;2.05;;;9.30;99.90;;;;;;5047872;28;20056;-42
2023/04/01 04:39:32;;;;;;;7.47;1.92;;;9.30;99.90;;;;;;5048295;28;20028;-41
2023/04/01 04:41:57;;;;;;;4.97;2.53;;;9.30;99.90;;;;;;5048048;28;20033;-40
2023/04/01 04:44:23;;;;;;;5.15;1.60;;;9.30;99.90;;;;;;5048422;28;20135;-41
2023/04/01 04:46:48;;;;;;;9.40;3.50;;;9.30;99.90;;;;;;5048382;28;20518;-40
2023/04/01 04:49:14;;;;;;;5.25;1.95;;;9.30;99.90;;;;;;5048521;28;20017;-41
2023/04/01 04:51:40;;;;;;;2.92;1.42;;;9.40;99.90;;;;;;5048248;28;20130;-41
2023/04/01 04:54:06;;;;;;;7.65;2.95;;;9.40;99.90;;;;;;5047648;28;20040;-42
2023/04/01 04:56:32;;;;;;;5.68;2.22;;;9.30;99.90;;;;;;5048159;28;20017;-41
2023/04/01 04:58:58;;;;;;;3.30;1.70;;;9.30;99.90;;;;;;5048206;28;20035;-41
2023/04/01 05:01:24;;;;;;;7.47;1.88;;;9.30;99.90;;;;;;5047846;28;20475;-40
2023/04/01 05:03:51;;;;;;;3.53;2.05;;;9.30;99.90;;;;;;5039787;28;20083;-41
2023/04/01 05:06:17;;;;;;;6.20;2.05;;;9.30;99.90;;;;;;5046463;28;20108;-41
2023/04/01 05:08:44;;;;;;;6.45;2.00;;;9.30;99.90;;;;;;5041737;28;20041;-41
2023/04/01 05:11:14;;;;;;;6.13;1.90;;;9.40;99.90;;;;;;5042047;28;20078;-42
2023/04/01 05:13:40;;;;;;;6.03;1.57;;;9.30;99.90;;;;;;5040312;28;20030;-42
2023/04/01 05:16:11;;;;;;;3.42;1.48;;;9.30;99.90;;;;;;5041848;28;20036;-41
2023/04/01 05:18:36;;;;;;;5.03;1.70;;;9.30;99.90;;;;;;5039640;28;20037;-40
2023/04/01 05:21:02;;;;;;;4.47;2.03;;;9.30;99.90;;;;;;5041996;28;20394;-41
2023/04/01 05:23:27;;;;;;;4.22;1.63;;;9.30;99.90;;;;;;5039360;28;20143;-40
2023/04/01 05:25:53;;;;;;;3.75;1.83;;;9.30;99.90;;;;;;5042313;28;20052;-42
2023/04/01 05:28:19;;;;;;;3.75;1.55;;;9.30;99.90;;;;;;5050047;28;20489;-41
2023/04/01 05:30:45;;;;;;;4.22;1.65;;;9.40;99.90;;;;;;5051791;28;20104;-42
2023/04/01 05:33:12;;;;;;;5.45;1.85;;;9.40;99.90;;;;;;5051742;28;20490;-43
2023/04/01 05:35:38;;;;;;;2.55;1.63;;;9.40;99.90;;;;;;5051425;28;20116;-42
2023/04/01 05:38:04;;;;;;;3.20;1.58;;;9.40;99.90;;;;;;5051559;28;20061;-40
2023/04/01 05:40:30;;;;;;;5.45;2.00;;;9.40;99.90;;;;;;5051926;28;20044;-41
2023/04/01 05:42:56;;;;;;;1.77;1.50;;;9.50;99.90;;;;;;5051210;28;20021;-42
2023/04/01 05:45:21;;;;;;;3.65;1.30;;;9.50;99.90;;;;;;5051334;28;20493;-41
2023/04/01 05:47:47;;;;;;;2.35;1.35;;;9.50;99.90;;;;;;5051205;28;20062;-41
2023/04/01 05:50:12;;;;;;;5.65;1.90;;;9.60;99.90;;;;;;5051639;28;20364;-41
2023/04/01 05:52:39;;;;;;;4.40;2.15;;;9.60;99.90;;;;;;5051381;28;20428;-41
2023/04/01 05:55:05;;;;;;;4.60;1.75;;;9.60;99.90;;;;;;5051137;28;20075;-41
2023/04/01 05:57:31;;;;;;;5.88;2.47;;;9.70;99.90;;;;;;5050674;28;20557;-42
2023/04/01 05:59:57;;;;;;;3.70;1.40;;;9.70;99.90;;;;;;5051291;28;20063;-42
2023/04/01 06:02:23;;;;;;;6.85;1.83;;;9.70;99.90;;;;;;5049267;28;20025;-41
2023/04/01 06:04:49;;;;;;;3.35;1.75;;;9.80;99.90;;;;;;5047153;28;20048;-41
2023/04/01 06:07:16;;;;;;;3.25;1.20;;;9.80;99.90;;;;;;5045192;28;20477;-41
2023/04/01 06:09:44;;;;;;;2.80;1.50;;;9.80;99.90;;;;;;5048331;28;20028;-42
2023/04/01 06:12:33;;;;;;;2.90;1.25;;;9.90;99.90;;;;;;5043098;28;20090;-41
2023/04/01 06:15:20;;;;;;;1.85;1.15;;;9.90;99.90;;;;;;5049823;28;20103;-42
2023/04/01 06:18:10;;;;;;;2.45;1.27;;;9.90;99.90;;;;;;5050052;28;20025;-42
2023/04/01 06:21:04;;;;;;;1.60;1.30;;;10.00;99.90;;;;;;5045869;28;20032;-42
2023/04/01 06:23:32;;;;;;;3.20;1.42;;;10.00;99.90;;;;;;5050834;28;20290;-42
2023/04/01 06:26:31;;;;;;;4.28;1.77;;;10.10;99.90;;;;;;5050696;28;20540;-43
2023/04/01 06:29:15;;;;;;;5.10;1.60;;;10.00;99.90;;;;;;5051211;28;20025;-43
2023/04/01 06:32:04;;;;;;;5.80;1.60;;;10.00;99.90;;;;;;5060975;28;20213;-43
2023/04/01 06:34:54;;;;;;;2.65;1.52;;;10.10;99.90;;;;;;5042964;28;20028;-43
2023/04/01 06:37:26;;;;;;;3.58;2.10;;;10.20;99.90;;;;;;5050254;28;20210;-42
2023/04/01 06:40:22;;;;;;;4.70;2.80;;;10.20;99.90;;;;;;5050323;28;20049;-41
2023/04/01 06:43:08;;;;;;;4.40;2.20;;;10.30;99.90;;;;;;5050429;28;20032;-42
2023/04/01 06:45:54;;;;;;;4.38;2.10;;;10.30;99.90;;;;;;5049961;28;20100;-46
2023/04/01 06:48:47;;;;;;;4.03;1.70;;;10.40;99.90;;;;;;5050209;28;20383;-42
2023/04/01 06:51:28;;;;;;;3.90;1.35;;;10.50;99.90;;;;;;5050351;28;20100;-41
2023/04/01 06:54:02;;;;;;;;;;;10.60;99.90;;;;;;5050805;28;20433;-41
2023/04/01 06:56:29;;;;;;;2.63;1.60;;;10.70;99.90;;;;;;5050287;28;20382;-42
2023/04/01 06:59:04;;;;;;;1.85;1.20;;;10.70;99.90;;;;;;5045488;28;20075;-41
2023/04/01 07:01:39;;;;;;;4.68;1.23;;;10.80;99.90;;;;;;5049958;28;20029;-42
2023/04/01 07:04:13;;;;;;;7.20;1.40;;;10.70;99.90;;;;;;5050094;28;20036;-42
2023/04/01 07:06:53;;;;;;;2.53;1.17;;;10.80;99.90;;;;;;5049884;28;20025;-42
2023/04/01 07:09:24;;;;;;;2.00;1.10;;;10.80;99.90;;;;;;5049562;28;20092;-41
2023/04/01 07:11:51;;;;;;;3.67;1.30;;;10.80;99.90;;;;;;5050145;28;20470;-41
2023/04/01 07:14:25;;;;;;;3.92;1.17;;;10.80;99.90;;;;;;5049948;28;20342;-41
2023/04/01 07:17:15;;;;;;;2.72;1.55;;;10.80;99.90;;;;;;5048201;28;20109;-41
2023/04/01 07:19:59;;;;;;;2.03;1.15;;;10.90;99.90;;;;;;5049825;28;20017;-41
2023/04/01 07:22:35;;;;;;;4.25;1.42;;;10.70;99.90;;;;;;5049630;28;20359;-42
2023/04/01 07:25:14;;;;;;;6.00;1.48;;;10.80;99.90;;;;;;5049581;28;20029;-41
2023/04/01 07:27:42;;;;;;;4.63;1.67;;;11.00;99.90;;;;;;5048131;28;20021;-41
2023/04/01 07:30:30;;;;;;;2.55;0.90;;;11.10;99.90;;;;;;5047661;28;20466;-41
2023/04/01 07:33:19;;;;;;;4.30;1.50;;;11.30;99.90;;;;;;5045998;28;20033;-41
2023/04/01 07:36:08;;;;;;;1.75;1.00;;;11.30;99.90;;;;;;5049457;28;20017;-42
2023/04/01 07:38:55;;;;;;;2.95;1.42;;;11.60;99.90;;;;;;5049164;28;20474;-41
2023/04/01 07:41:29;;;;;;;3.67;1.17;;;11.50;99.90;;;;;;5049233;28;20074;-42
2023/04/01 07:44:31;;;;;;;1.65;1.00;;;11.70;99.90;;;;;;5049039;28;20564;-41
2023/04/01 07:47:25;;;;;;;5.53;0.90;;;11.90;99.90;;;;;;5047078;28;20386;-41
2023/04/01 07:50:10;;;;;;;3.75;1.27;;;12.10;99.90;;;;;;5038583;28;20029;-41
2023/04/01 07:52:41;;;;;;;1.90;1.08;;;12.30;99.90;;;;;;5049513;28;20024;-41
2023/04/01 07:55:16;;;;;;;2.50;1.17;;;12.50;99.90;;;;;;5049233;28;20024;-42
2023/04/01 07:58:09;;;;;;;2.28;1.02;;;12.60;99.90;;;;;;5047463;28;20560;-41
2023/04/01 08:01:01;;;;;;;3.67;1.38;;;12.70;99.90;;;;;;5048847;28;20028;-42
2023/04/01 08:03:45;;;;;;;2.13;1.00;;;12.80;99.90;;;;;;5041449;28;20025;-41
2023/04/01 08:06:32;;;;;;;3.20;0.88;;;12.90;99.90;;;;;;5045654;28;20511;-40
2023/04/01 08:09:37;;;;;;;2.15;0.88;;;13.00;99.90;;;;;;5045167;28;20013;-41
2023/04/01 08:12:11;;;;;;;2.00;0.80;;;13.20;99.90;;;;;;5039747;28;20056;-41
2023/04/01 08:14:48;;;;;;;3.45;1.40;;;13.30;99.90;;;;;;5042866;28;20021;-42
2023/04/01 08:17:20;;;;;;;2.03;0.98;;;13.30;99.90;;;;;;5042176;28;20018;-41
2023/04/01 08:19:51;;;;;;;1.83;0.90;;;13.30;99.90;;;;;;5040445;28;20052;-42
2023/04/01 08:22:46;;;;;;;2.70;0.70;;;13.40;99.90;;;;;;5043366;28;20471;-42
2023/04/01 08:25:20;;;;;;;1.15;0.60;;;13.40;99.90;;;;;;5030197;28;20036;-41
2023/04/01 08:27:56;;;;;;;1.60;0.63;;;13.10;99.90;;;;;;5026624;28;20029;-40
2023/04/01 08:30:26;;;;;;;2.83;0.70;;;13.50;99.90;;;;;;5048112;28;20032;-41
2023/04/01 08:33:19;;;;;;;2.17;0.80;;;13.40;99.90;;;;;;5039713;28;20022;-42
2023/04/01 08:36:13;;;;;;;5.60;1.00;;;13.50;99.90;;;;;;5039841;28;20446;-46
2023/04/01 08:39:04;;;;;;;1.50;0.60;;;14.10;99.90;;;;;;5041761;28;20048;-41
2023/04/01 08:41:38;;;;;;;;;;;14.40;99.90;;;;;;5044473;28;20207;-42
2023/04/01 08:44:41;;;;;;;3.00;0.95;;;15.20;99.90;;;;;;5041239;28;19913;-39
2023/04/01 08:47:35;;;;;;;1.92;0.70;;;14.80;99.90;;;;;;5041114;28;20068;-41
2023/04/01 08:50:28;;;;;;;1.23;0.55;;;14.50;99.90;;;;;;5041166;28;20013;-40
2023/04/01 08:52:56;;;;;;;0.75;0.45;;;14.50;99.90;;;;;;5042976;28;20028;-41
2023/04/01 08:55:50;;;;;;;4.30;0.65;;;14.40;99.90;;;;;;5038142;28;20108;-40
2023/04/01 08:58:21;;;;;;;1.58;0.65;;;14.20;99.90;;;;;;5036080;28;20057;-41
2023/04/01 09:00:55;;;;;;;0.80;0.50;;;13.80;99.90;;;;;;5040104;28;20021;-40
2023/04/01 09:03:59;;;;;;;0.63;0.40;;;13.60;99.90;;;;;;5045386;28;20432;-41
2023/04/01 09:06:37;;;;;;;1.55;0.40;;;13.40;99.90;;;;;;5046484;28;20020;-41
2023/04/01 09:09:15;;;;;;;0.60;0.40;;;13.30;99.90;;;;;;5043441;28;20500;-41
2023/04/01 09:12:01;;;;;;;2.35;0.60;;;13.20;99.90;;;;;;5045762;28;20115;-41
2023/04/01 09:14:35;;;;;;;1.35;0.60;;;12.90;99.90;;;;;;5046613;28;20028;-41
2023/04/01 09:17:32;;;;;;;2.58;0.60;;;12.70;99.90;;;;;;5043296;28;20017;-41
2023/04/01 09:20:17;;;;;;;1.00;0.60;;;12.70;99.90;;;;;;5042080;28;20458;-41
2023/04/01 09:23:14;;;;;;;1.83;0.65;;;12.50;99.90;;;;;;5041188;28;20075;-42
2023/04/01 09:26:07;;;;;;;0.88;0.60;;;12.70;99.90;;;;;;5041649;28;20017;-40
2023/04/01 09:29:16;;;;;;;1.15;0.45;;;12.80;99.90;;;;;;5057124;28;20025;-41
2023/04/01 09:32:19;;;;;;;2.33;0.70;;;13.10;99.90;;;;;;4989197;28;20440;-40
2023/04/01 09:35:06;;;;;;;1.10;0.60;;;13.20;99.90;;;;;;4987755;28;20026;-43
2023/04/01 09:37:47;;;;;;;3.55;0.50;;;13.20;99.90;;;;;;5040133;28;20072;-42
2023/04/01 09:40:32;;;;;;;2.40;0.50;;;13.10;99.90;;;;;;5045322;28;20021;-42
2023/04/01 09:44:05;;;;;;;1.25;0.55;;;13.10;99.90;;;;;;5041437;28;20513;-42
2023/04/01 09:47:03;;;;;;;2.50;0.93;;;13.10;99.90;;;;;;4979328;28;20038;-42
2023/04/01 09:50:05;;;;;;;2.75;0.70;;;12.90;99.90;;;;;;4987680;28;20049;-41
2023/04/01 09:53:14;;;;;;;1.13;0.60;;;12.90;99.90;;;;;;5041809;28;20032;-41
2023/04/01 09:56:08;;;;;;;1.38;0.60;;;12.90;99.90;;;;;;5044796;28;20108;-42
2023/04/01 09:58:53;;;;;;;1.85;0.38;;;12.90;99.90;;;;;;5045571;28;20025;-41
2023/04/01 10:02:07;;;;;;;0.88;0.40;;;12.80;99.90;;;;;;5045647;28;20044;-41
2023/04/01 10:05:01;;;;;;;0.77;0.32;;;12.80;99.90;;;;;;4992740;28;20647;-40
2023/04/01 10:07:57;;;;;;;1.90;0.60;;;12.80;99.90;;;;;;5060317;28;20013;-42
2023/04/01 10:10:41;;;;;;;0.57;0.40;;;12.60;99.90;;;;;;5045528;28;20035;-42
2023/04/01 10:13:28;;;;;;;1.38;0.63;;;12.50;99.90;;;;;;5042731;28;20104;-40
2023/04/01 10:16:14;;;;;;;1.65;0.45;;;12.40;99.90;;;;;;5059739;28;20021;-42
2023/04/01 10:18:45;;;;;;;0.90;0.50;;;12.50;99.90;;;;;;5047252;28;20025;-41
2023/04/01 10:21:37;;;;;;;1.92;0.75;;;12.50;99.90;;;;;;5051269;28;20025;-42
2023/04/01 10:24:35;;;;;;;1.95;0.50;;;12.70;99.90;;;;;;5050883;28;20316;-42
2023/04/01 10:27:45;;;;;;;0.40;0.40;;;13.00;99.90;;;;;;5037289;28;20406;-42
2023/04/01 10:30:29;;;;;;;0.55;0.50;;;13.30;99.90;;;;;;5050612;28;20017;-42
2023/04/01 10:33:26;;;;;;;1.55;0.50;;;13.50;99.90;;;;;;5050814;28;20027;-41
2023/04/01 10:36:18;;;;;;;1.77;1.10;;;13.70;99.90;;;;;;5049995;28;20513;-41
2023/04/01 10:39:14;;;;;;;0.68;0.50;;;13.80;99.90;;;;;;5047364;28;20040;-42
2023/04/01 10:42:15;;;;;;;1.10;0.60;;;14.00;99.90;;;;;;5054130;28;20031;-43
2023/04/01 10:44:50;;;;;;;1.75;0.65;;;14.10;99.90;;;;;;5025207;28;20041;-41
2023/04/01 10:47:46;;;;;;;1.15;0.55;;;14.30;99.90;;;;;;5039147;28;20036;-42
2023/04/01 10:50:48;;;;;;;1.25;0.82;;;14.60;99.90;;;;;;5043957;28;20013;-42
2023/04/01 10:53:25;;;;;;;2.45;0.80;;;14.70;99.90;;;;;;5044130;28;20359;-43
2023/04/01 10:56:20;;;;;;;0.70;0.50;;;14.70;99.90;;;;;;5041948;28;20336;-43
2023/04/01 10:59:04;;;;;;;1.17;0.93;;;14.60;99.90;;;;;;5049703;28;20027;-42
2023/04/01 11:01:57;;;;;;;1.42;0.93;;;14.60;99.90;;;;;;5049810;28;20106;-42
2023/04/01 11:04:51;;;;;;;0.93;0.50;;;14.50;99.90;;;;;;5049782;28;20509;-43
2023/04/01 11:07:54;;;;;;;1.38;0.80;;;14.30;99.90;;;;;;5049378;28;20028;-41
2023/04/01 11:10:53;;;;;;;2.28;1.20;;;14.10;99.90;;;;;;5049273;28;20067;-41
2023/04/01 11:13:56;;;;;;;2.60;0.93;;;14.00;99.90;;;;;;5046664;28;20074;-42
2023/04/01 11:16:56;;;;;;;1.00;0.80;;;14.00;99.90;;;;;;5049423;28;20031;-42
2023/04/01 11:20:22;;;;;;;2.65;1.15;;;14.00;99.90;;;;;;5048353;28;20028;-41
2023/04/01 11:23:17;;;;;;;1.00;0.82;;;14.10;99.90;;;;;;5036903;28;20102;-42
2023/04/01 11:25:50;;;;;;;3.38;0.77;;;14.20;99.90;;;;;;5048452;28;20407;-42
2023/04/01 11:28:33;;;;;;;1.52;0.93;;;14.20;99.90;;;;;;5048888;28;20025;-41
2023/04/01 11:31:04;;;;;;;4.50;1.73;;;14.20;99.90;;;;;;5047783;28;20029;-42
2023/04/01 11:33:51;;;;;;;4.93;2.45;;;14.20;99.90;;;;;;5049556;28;20021;-42
2023/04/01 11:36:42;;;;;;;1.65;1.17;;;14.10;99.90;;;;;;5048890;28;20033;-43
2023/04/01 11:39:30;;;;;;;2.72;1.50;;;14.00;99.90;;;;;;5049165;28;20036;-41
2023/04/01 11:42:13;;;;;;;2.25;1.23;;;14.00;99.90;;;;;;5048882;28;20035;-42
2023/04/01 11:44:47;;;;;;;2.70;1.38;;;14.00;99.90;;;;;;5049387;28;20009;-42
2023/04/01 11:47:42;;;;;;;1.77;1.17;;;14.10;99.90;;;;;;5048313;28;20083;-41
2023/04/01 11:50:41;;;;;;;3.10;1.30;;;14.20;99.90;;;;;;5049035;28;20094;-41
2023/04/01 11:53:26;;;;;;;2.63;1.55;;;14.10;99.90;;;;;;5048867;28;20024;-41
2023/04/01 11:56:32;;;;;;;4.53;2.63;;;13.90;99.90;;;;;;5047520;28;20402;-40
2023/04/01 11:59:26;;;;;;;2.50;1.75;;;13.80;99.90;;;;;;5044817;28;20017;-40
2023/04/01 12:02:15;;;;;;;1.75;1.45;;;13.80;99.90;;;;;;5048668;28;20021;-41
2023/04/01 12:04:54;;;;;;;4.30;2.25;;;13.90;99.90;;;;;;5048116;28;20025;-42
2023/04/01 12:08:02;;;;;;;3.63;1.65;;;13.90;99.90;;;;;;5048324;28;20067;-41
2023/04/01 12:10:58;;;;;;;6.40;3.00;;;13.90;99.90;;;;;;5049050;28;20028;-41
2023/04/01 12:13:23;;;;;;;4.70;2.75;;;14.00;99.90;;;;;;5042329;28;20553;-41
2023/04/01 12:16:21;;;;;;;4.60;2.25;;;14.00;99.90;;;;;;5046540;28;20037;-41
2023/04/01 12:19:03;;;;;;;1.83;1.35;;;14.00;99.90;;;;;;5047151;28;20506;-42
2023/04/01 12:21:34;;;;;;;3.25;1.15;;;13.90;99.90;;;;;;5048667;28;20028;-41
2023/04/01 12:24:15;;;;;;;2.22;1.10;;;13.90;99.90;;;;;;5047092;28;20116;-42
2023/04/01 12:26:47;;;;;;;3.60;2.15;;;13.80;99.90;;;;;;5039993;28;20538;-41
2023/04/01 12:29:36;;;;;;;4.03;2.80;;;13.80;99.90;;;;;;5047853;28;20036;-42
2023/04/01 12:32:19;;;;;;;4.95;3.42;;;13.90;99.90;;;;;;5048301;28;20510;-41
2023/04/01 12:34:52;;;;;;;4.00;2.53;;;13.80;99.90;;;;;;5053927;28;20490;-42
2023/04/01 12:37:37;;;;;;;3.10;1.95;;;13.70;99.90;;;;;;5048884;28;20021;-41
2023/04/01 12:40:38;;;;;;;1.70;1.50;;;13.70;99.90;;;;;;5048887;28;20032;-42
2023/04/01 12:43:18;;;;;;;4.40;3.05;;;13.70;99.90;;;;;;5048283;28;20029;-41
2023/04/01 12:46:13;;;;;;;3.03;2.13;;;13.60;99.90;;;;;;5046997;28;20060;-42
2023/04/01 12:49:05;;;;;;;2.50;2.20;;;13.50;99.90;;;;;;5047935;28;20116;-41
2023/04/01 12:52:08;;;;;;;5.45;2.70;;;13.40;99.90;;;;;;5046872;28;20382;-41
2023/04/01 12:54:52;;;;;;;2.95;1.88;;;13.00;99.90;;;;;;5048483;28;20079;-41
2023/04/01 12:57:46;;;;;;;3.58;2.28;;;12.80;99.90;;;;;;5047287;28;20544;-41
2023/04/01 13:00:30;;;;;;;2.28;1.90;;;12.70;99.90;;;;;;5043824;28;20558;-42
2023/04/01 13:03:14;;;;;;;2.38;2.03;;;12.50;99.90;;;;;;5048044;28;20052;-41
2023/04/01 13:05:43;;;;;;;2.83;2.13;;;12.20;99.90;;;;;;5047886;28;20024;-41
2023/04/01 13:08:45;;;;;;;2.03;1.80;;;12.10;99.90;;;;;;5046534;28;20070;-42
2023/04/01 13:11:41;;;;;;;3.15;1.92;;;11.80;99.90;;;;;;5048146;28;20107;-42
2023/04/01 13:14:20;;;;;;;4.30;2.00;;;11.60;99.90;;;;;;5039600;28;20033;-41
2023/04/01 13:16:52;;;;;;;2.43;1.60;;;11.50;99.90;;;;;;5047118;28;20021;-41
2023/04/01 13:19:34;;;;;;;3.28;1.40;;;11.50;99.90;;;;;;5047912;28;20029;-41
2023/04/01 13:22:25;;;;;;;2.20;1.50;;;11.40;99.90;;;;;;5047804;28;20081;-42
2023/04/01 13:24:58;;;;;;;2.00;1.55;;;11.30;99.90;;;;;;5048204;28;20096;-42
2023/04/01 13:27:36;;;;;;;1.40;1.30;;;11.20;99.90;;;;;;5046668;28;20465;-43
2023/04/01 13:30:16;;;;;;;1.45;1.25;;;11.10;99.90;;;;;;5048086;28;20028;-41
2023/04/01 13:32:47;;;;;;;1.45;1.17;;;11.00;99.90;;;;;;5047799;28;20188;-42
2023/04/01 13:35:22;;;;;;;2.10;1.50;;;10.90;99.90;;;;;;5047786;28;20029;-42
2023/04/01 13:38:08;;;;;;;3.65;2.30;;;10.80;99.90;;;;;;5041151;28;20021;-42
2023/04/01 13:40:47;;;;;;;1.98;1.50;;;10.70;99.90;;;;;;5047813;28;20025;-42
2023/04/01 13:43:25;;;;;;;4.28;2.03;;;10.70;99.90;;;;;;5047628;28;20025;-42
2023/04/01 13:46:23;;;;;;;2.42;1.73;;;10.50;99.90;;;;;;5047563;28;20413;-41
2023/04/01 13:49:03;;;;;;;1.80;1.52;;;10.40;99.90;;;;;;5047352;28;20057;-42